Time;durP1;ratioP1;P1;durP2;ratioP2;P2;SDS_P1;SDS_P2;PMS_P1;PMS_P2;Temp;Humidity;BMP_temperature;BMP_pressure;BME280_temperature;BME280_humidity;BME280_pressure;Samples;Min_cycle;Max_cycle;Signal;HPM_P1;HPM_P2
2023/12/09 00:01:17;;;;;;;173.05;45.83;;;7.00;99.90;;;;;;5089199;28;20916;-72
2023/12/09 00:03:43;;;;;;;179.55;45.17;;;6.90;99.90;;;;;;5102811;28;20478;-73
2023/12/09 00:06:09;;;;;;;167.40;45.23;;;7.00;99.90;;;;;;5083504;28;20445;-73
2023/12/09 00:08:35;;;;;;;154.65;43.25;;;7.00;99.90;;;;;;5089209;28;20938;-73
2023/12/09 00:11:01;;;;;;;156.90;42.27;;;7.00;99.90;;;;;;5096601;28;20412;-74
2023/12/09 00:13:26;;;;;;;154.38;41.70;;;7.00;99.90;;;;;;5101571;28;20397;-74
2023/12/09 00:15:52;;;;;;;162.80;43.65;;;7.10;99.90;;;;;;5094433;28;20398;-74
2023/12/09 00:18:17;;;;;;;151.30;41.43;;;7.00;99.90;;;;;;5094871;28;20420;-74
2023/12/09 00:20:44;;;;;;;154.43;42.20;;;7.00;99.90;;;;;;5091155;28;20763;-74
2023/12/09 00:23:09;;;;;;;169.10;43.13;;;7.10;99.90;;;;;;5105265;28;20427;-74
2023/12/09 00:25:35;;;;;;;149.82;43.33;;;7.10;99.90;;;;;;5094442;28;20400;-74
2023/12/09 00:28:01;;;;;;;137.27;40.60;;;7.00;99.90;;;;;;5099092;28;20905;-74
2023/12/09 00:30:27;;;;;;;150.97;42.80;;;7.10;99.90;;;;;;5096681;28;20394;-74
2023/12/09 00:32:53;;;;;;;161.13;42.10;;;7.10;99.90;;;;;;5104991;28;20404;-74
2023/12/09 00:35:18;;;;;;;139.13;39.53;;;7.10;99.90;;;;;;5094363;28;20402;-74
2023/12/09 00:37:44;;;;;;;157.97;42.67;;;7.10;99.90;;;;;;5103163;28;20400;-74
2023/12/09 00:40:10;;;;;;;157.83;41.20;;;7.10;99.90;;;;;;5099356;28;20452;-74
2023/12/09 00:42:36;;;;;;;154.75;42.60;;;7.10;99.90;;;;;;5078214;28;20525;-73
2023/12/09 00:45:02;;;;;;;151.48;41.25;;;7.10;99.90;;;;;;5099388;28;20489;-74
2023/12/09 00:47:27;;;;;;;147.20;40.58;;;7.10;99.90;;;;;;5105317;28;20487;-74
2023/12/09 00:49:53;;;;;;;152.97;41.03;;;7.20;99.90;;;;;;5098278;28;20972;-74
2023/12/09 00:52:19;;;;;;;139.27;39.53;;;7.20;99.90;;;;;;5102907;28;20404;-74
2023/12/09 00:54:45;;;;;;;169.80;42.20;;;7.20;99.90;;;;;;5098563;28;20394;-74
2023/12/09 00:57:10;;;;;;;154.68;41.80;;;7.20;99.90;;;;;;5104514;28;20452;-74
2023/12/09 00:59:36;;;;;;;146.90;41.37;;;7.20;99.90;;;;;;5097675;28;20900;-74
2023/12/09 01:02:02;;;;;;;145.10;39.63;;;7.20;99.90;;;;;;5102482;28;20405;-74
2023/12/09 01:04:27;;;;;;;142.65;40.90;;;7.20;99.90;;;;;;5096613;28;20460;-74
2023/12/09 01:06:53;;;;;;;138.57;40.17;;;7.20;99.90;;;;;;5101093;28;20400;-74
2023/12/09 01:09:18;;;;;;;156.88;41.83;;;7.20;99.90;;;;;;5095158;28;20406;-74
2023/12/09 01:11:45;;;;;;;148.95;40.90;;;7.20;99.90;;;;;;5096443;28;20436;-74
2023/12/09 01:14:11;;;;;;;149.25;40.42;;;7.20;99.90;;;;;;5099936;28;20410;-74
2023/12/09 01:16:37;;;;;;;150.75;40.90;;;7.30;99.90;;;;;;5101357;28;20411;-73
2023/12/09 01:19:02;;;;;;;146.35;40.80;;;7.20;99.90;;;;;;5091895;28;20836;-74
2023/12/09 01:21:28;;;;;;;142.48;39.80;;;7.20;99.90;;;;;;5074861;28;20506;-74
2023/12/09 01:23:54;;;;;;;140.20;39.73;;;7.20;99.90;;;;;;5080942;28;20472;-74
2023/12/09 01:26:19;;;;;;;143.02;39.38;;;7.20;99.90;;;;;;5087944;28;20398;-74
2023/12/09 01:28:45;;;;;;;150.77;40.40;;;7.20;99.90;;;;;;5103773;28;20867;-74
2023/12/09 01:31:10;;;;;;;146.75;38.92;;;7.30;99.90;;;;;;5093086;28;20419;-74
2023/12/09 01:33:38;;;;;;;137.55;38.40;;;7.30;99.90;;;;;;5104196;28;20483;-74
2023/12/09 01:36:04;;;;;;;135.02;38.50;;;7.20;99.90;;;;;;5104479;28;20400;-74
2023/12/09 01:38:29;;;;;;;136.52;38.78;;;7.20;99.90;;;;;;5093998;27;20409;-74
2023/12/09 01:40:55;;;;;;;143.53;39.73;;;7.30;99.90;;;;;;5100209;28;20410;-74
2023/12/09 01:43:21;;;;;;;127.32;38.80;;;7.30;99.90;;;;;;5106448;28;20502;-74
2023/12/09 01:45:50;;;;;;;116.53;36.13;;;7.30;99.90;;;;;;5099531;28;20569;-74
2023/12/09 01:48:16;;;;;;;121.40;36.55;;;7.30;99.90;;;;;;5096598;28;20445;-74
2023/12/09 01:50:41;;;;;;;122.47;37.47;;;7.30;99.90;;;;;;5102847;28;20390;-74
2023/12/09 01:53:07;;;;;;;123.90;36.57;;;7.30;99.90;;;;;;5104508;28;20404;-74
2023/12/09 01:55:33;;;;;;;123.60;38.30;;;7.30;99.90;;;;;;5093014;28;20908;-74
2023/12/09 01:57:59;;;;;;;125.95;36.05;;;7.30;99.90;;;;;;5099835;28;20947;-74
2023/12/09 02:00:25;;;;;;;125.35;35.55;;;7.30;99.90;;;;;;5105212;28;20486;-74
2023/12/09 02:02:51;;;;;;;120.75;36.45;;;7.40;99.90;;;;;;5099715;28;20932;-74
2023/12/09 02:05:17;;;;;;;124.18;35.72;;;7.30;99.90;;;;;;5104906;28;20395;-74
2023/12/09 02:07:44;;;;;;;116.18;35.20;;;7.40;99.90;;;;;;5091129;28;20401;-74
2023/12/09 02:10:10;;;;;;;124.13;37.15;;;7.40;99.90;;;;;;5106583;28;20403;-74
2023/12/09 02:12:59;;;;;;;116.80;34.90;;;7.40;99.90;;;;;;5101703;28;20413;-74
2023/12/09 02:15:29;;;;;;;119.32;36.38;;;7.40;99.90;;;;;;5103266;28;20415;-74
2023/12/09 02:18:04;;;;;;;114.80;36.33;;;7.40;99.90;;;;;;5104155;28;20405;-74
2023/12/09 02:20:30;;;;;;;118.80;34.15;;;7.40;99.90;;;;;;5089470;28;20431;-74
2023/12/09 02:23:09;;;;;;;108.05;35.38;;;7.40;99.90;;;;;;5097113;28;20421;-74
2023/12/09 02:25:36;;;;;;;120.28;36.05;;;7.40;99.90;;;;;;5100527;28;20427;-74
2023/12/09 02:28:26;;;;;;;114.50;35.00;;;7.40;99.90;;;;;;5104873;28;20834;-74
2023/12/09 02:31:17;;;;;;;108.68;34.80;;;7.40;99.90;;;;;;5066869;28;20479;-74
2023/12/09 02:33:43;;;;;;;101.68;33.38;;;7.40;99.90;;;;;;5100816;28;20406;-74
2023/12/09 02:36:12;;;;;;;106.32;33.83;;;7.40;99.90;;;;;;5103869;28;20396;-74
2023/12/09 02:38:39;;;;;;;117.20;35.67;;;7.50;99.90;;;;;;5101011;28;20404;-74
2023/12/09 02:41:09;;;;;;;114.15;34.45;;;7.40;99.90;;;;;;5105279;28;20392;-74
2023/12/09 02:43:35;;;;;;;99.07;33.53;;;7.40;99.90;;;;;;5100764;28;20832;-74
2023/12/09 02:46:01;;;;;;;106.20;32.80;;;7.40;99.90;;;;;;5103340;28;20822;-74
2023/12/09 02:48:26;;;;;;;113.72;33.92;;;7.40;99.90;;;;;;5099980;28;20491;-74
2023/12/09 02:50:52;;;;;;;110.50;33.53;;;7.40;99.90;;;;;;5103946;28;20886;-74
2023/12/09 02:53:18;;;;;;;109.30;33.75;;;7.40;99.90;;;;;;5100712;28;20913;-74
2023/12/09 02:55:43;;;;;;;104.33;33.73;;;7.40;99.90;;;;;;5102869;28;20412;-73
2023/12/09 02:58:09;;;;;;;106.37;34.03;;;7.40;99.90;;;;;;5100025;28;20423;-74
2023/12/09 03:00:34;;;;;;;95.40;31.80;;;7.40;99.90;;;;;;5103821;28;20405;-74
2023/12/09 03:03:00;;;;;;;98.70;32.57;;;7.40;99.90;;;;;;5100074;28;20813;-74
2023/12/09 03:05:26;;;;;;;94.35;31.85;;;7.40;99.90;;;;;;5103311;28;20886;-74
2023/12/09 03:07:51;;;;;;;92.40;32.93;;;7.40;99.90;;;;;;5099378;28;20511;-74
2023/12/09 03:10:17;;;;;;;98.72;31.40;;;7.40;99.90;;;;;;5103097;28;20412;-74
2023/12/09 03:12:43;;;;;;;105.93;33.25;;;7.40;99.90;;;;;;5079465;28;20406;-74
2023/12/09 03:15:09;;;;;;;90.90;31.13;;;7.40;99.90;;;;;;5094375;28;20770;-74
2023/12/09 03:17:35;;;;;;;100.30;32.33;;;7.40;99.90;;;;;;5099226;28;20734;-74
2023/12/09 03:20:02;;;;;;;96.35;31.33;;;7.40;99.90;;;;;;5103471;28;20412;-74
2023/12/09 03:22:29;;;;;;;84.75;31.80;;;7.40;99.90;;;;;;5100672;28;20398;-74
2023/12/09 03:24:55;;;;;;;94.05;31.15;;;7.50;99.90;;;;;;5104687;28;20396;-74
2023/12/09 03:27:20;;;;;;;92.57;31.57;;;7.40;99.90;;;;;;5099033;28;20415;-74
2023/12/09 03:29:46;;;;;;;87.60;30.63;;;7.50;99.90;;;;;;5094310;28;20790;-74
2023/12/09 03:32:11;;;;;;;89.03;31.37;;;7.50;99.90;;;;;;5099499;28;20876;-74
2023/12/09 03:34:37;;;;;;;90.00;30.33;;;7.40;99.90;;;;;;5103940;28;20490;-74
2023/12/09 03:37:03;;;;;;;83.25;30.63;;;7.40;99.90;;;;;;5100080;28;20421;-74
2023/12/09 03:39:28;;;;;;;82.13;29.57;;;7.40;99.90;;;;;;5103150;28;20838;-74
2023/12/09 03:41:54;;;;;;;93.28;30.42;;;7.50;99.90;;;;;;5099496;28;20460;-74
2023/12/09 03:44:20;;;;;;;85.28;29.30;;;7.50;99.90;;;;;;5094720;28;20434;-74
2023/12/09 03:46:45;;;;;;;86.63;29.50;;;7.50;99.90;;;;;;5101472;28;20402;-74
2023/12/09 03:49:11;;;;;;;84.38;30.15;;;7.50;99.90;;;;;;5105762;28;21120;-74
2023/12/09 03:51:36;;;;;;;84.87;29.50;;;7.50;99.90;;;;;;5102084;28;20455;-74
2023/12/09 03:54:02;;;;;;;87.37;29.97;;;7.50;99.90;;;;;;5106086;28;20404;-74
2023/12/09 03:56:28;;;;;;;85.93;29.58;;;7.50;99.90;;;;;;5100718;28;20433;-74
2023/12/09 03:58:53;;;;;;;87.20;30.37;;;7.50;99.90;;;;;;5104949;28;20504;-74
2023/12/09 04:01:22;;;;;;;95.05;30.52;;;7.50;99.90;;;;;;5101073;28;20408;-74
2023/12/09 04:03:48;;;;;;;81.40;29.13;;;7.40;99.90;;;;;;5105351;28;20511;-74
2023/12/09 04:06:13;;;;;;;79.53;29.33;;;7.50;99.90;;;;;;5101930;28;20485;-74
2023/12/09 04:08:39;;;;;;;78.95;29.55;;;7.50;99.90;;;;;;5104617;28;20408;-74
2023/12/09 04:11:04;;;;;;;84.33;28.60;;;7.50;99.90;;;;;;5099664;28;20467;-74
2023/12/09 04:13:30;;;;;;;71.95;27.50;;;7.50;99.90;;;;;;5104545;28;20408;-74
2023/12/09 04:15:56;;;;;;;80.75;28.73;;;7.60;99.90;;;;;;5099124;28;20439;-74
2023/12/09 04:18:21;;;;;;;78.43;27.70;;;7.50;99.90;;;;;;5104492;28;20540;-74
2023/12/09 04:20:47;;;;;;;78.95;28.45;;;7.50;99.90;;;;;;5098805;28;20795;-74
2023/12/09 04:23:12;;;;;;;75.40;27.67;;;7.50;99.90;;;;;;5104178;28;21554;-74
2023/12/09 04:25:38;;;;;;;80.07;27.33;;;7.50;99.90;;;;;;5090025;28;20563;-74
2023/12/09 04:28:05;;;;;;;79.82;27.40;;;7.40;99.90;;;;;;5104500;28;20731;-74
2023/12/09 04:30:30;;;;;;;70.80;26.90;;;7.40;99.90;;;;;;5091151;28;20454;-74
2023/12/09 04:32:56;;;;;;;78.65;26.58;;;7.40;99.90;;;;;;5107417;28;20796;-74
2023/12/09 04:35:21;;;;;;;74.07;26.43;;;7.40;99.90;;;;;;5091654;28;20402;-74
2023/12/09 04:37:47;;;;;;;71.15;27.17;;;7.40;99.90;;;;;;5096886;28;20966;-75
2023/12/09 04:40:13;;;;;;;72.77;25.13;;;7.40;99.90;;;;;;5103070;28;20404;-74
2023/12/09 04:42:39;;;;;;;72.50;25.03;;;7.40;99.90;;;;;;5105500;28;20499;-74
2023/12/09 04:45:06;;;;;;;71.23;25.10;;;7.40;99.90;;;;;;5100744;28;20402;-74
2023/12/09 04:47:32;;;;;;;60.38;23.73;;;7.40;99.90;;;;;;5105670;28;20945;-74
2023/12/09 04:49:58;;;;;;;67.70;24.38;;;7.40;99.90;;;;;;5102536;28;20390;-74
2023/12/09 04:52:24;;;;;;;66.50;24.08;;;7.40;99.90;;;;;;5104939;28;20411;-74
2023/12/09 04:54:50;;;;;;;69.50;23.27;;;7.40;99.90;;;;;;5100745;28;20406;-74
2023/12/09 04:57:16;;;;;;;62.85;23.02;;;7.40;99.90;;;;;;5104043;28;20435;-74
2023/12/09 04:59:42;;;;;;;53.23;22.30;;;7.40;99.90;;;;;;5100699;28;20410;-74
2023/12/09 05:02:07;;;;;;;56.72;22.73;;;7.40;99.90;;;;;;5104086;28;20487;-74
2023/12/09 05:04:33;;;;;;;59.55;22.50;;;7.40;99.90;;;;;;5101497;28;20517;-74
2023/12/09 05:06:59;;;;;;;53.13;21.57;;;7.40;99.90;;;;;;5104127;28;21010;-74
2023/12/09 05:09:24;;;;;;;63.77;23.00;;;7.50;99.90;;;;;;5100905;28;20402;-74
2023/12/09 05:11:50;;;;;;;57.10;22.05;;;7.40;99.90;;;;;;5104164;28;21074;-74
2023/12/09 05:14:16;;;;;;;53.63;21.67;;;7.50;99.90;;;;;;5100213;28;20405;-74
2023/12/09 05:16:42;;;;;;;55.50;21.53;;;7.50;99.90;;;;;;5104195;28;20487;-74
2023/12/09 05:19:07;;;;;;;59.67;21.00;;;7.50;99.90;;;;;;5098768;28;20805;-74
2023/12/09 05:21:33;;;;;;;54.23;21.00;;;7.40;99.90;;;;;;5103615;28;20405;-74
2023/12/09 05:23:59;;;;;;;60.53;21.07;;;7.50;99.90;;;;;;5099600;28;20430;-74
2023/12/09 05:26:28;;;;;;;52.43;21.07;;;7.40;99.90;;;;;;5104410;28;20408;-75
2023/12/09 05:28:55;;;;;;;55.67;20.90;;;7.40;99.90;;;;;;5096933;28;20463;-74
2023/12/09 05:31:21;;;;;;;51.83;21.45;;;7.40;99.90;;;;;;5098192;28;20411;-74
2023/12/09 05:33:47;;;;;;;49.63;20.47;;;7.40;99.90;;;;;;5091754;28;20405;-74
2023/12/09 05:36:13;;;;;;;51.70;20.13;;;7.40;99.90;;;;;;5107115;28;20404;-74
2023/12/09 05:38:38;;;;;;;52.88;20.10;;;7.40;99.90;;;;;;5104049;28;20449;-74
2023/12/09 05:41:05;;;;;;;47.63;19.35;;;7.40;99.90;;;;;;5105553;28;20943;-74
2023/12/09 05:43:31;;;;;;;58.80;19.67;;;7.40;99.90;;;;;;5104499;28;20457;-74
2023/12/09 05:45:56;;;;;;;50.95;19.77;;;7.40;99.90;;;;;;5097071;28;20417;-74
2023/12/09 05:48:22;;;;;;;53.27;19.73;;;7.40;99.90;;;;;;5101828;28;20439;-74
2023/12/09 05:50:48;;;;;;;52.93;19.97;;;7.40;99.90;;;;;;5105703;28;20797;-74
2023/12/09 05:53:13;;;;;;;50.95;19.08;;;7.40;99.90;;;;;;5102720;28;20404;-74
2023/12/09 05:55:39;;;;;;;44.73;18.53;;;7.40;99.90;;;;;;5106615;28;20396;-74
2023/12/09 05:58:04;;;;;;;47.70;18.20;;;7.40;99.90;;;;;;5103308;28;20711;-74
2023/12/09 06:00:30;;;;;;;53.37;18.50;;;7.50;99.90;;;;;;5104676;28;20396;-74
2023/12/09 06:02:56;;;;;;;47.67;19.20;;;7.40;99.90;;;;;;5101811;28;20454;-74
2023/12/09 06:05:21;;;;;;;47.20;17.88;;;7.40;99.90;;;;;;5096309;28;20394;-74
2023/12/09 06:07:47;;;;;;;56.20;19.37;;;7.40;99.90;;;;;;5096607;28;20811;-74
2023/12/09 06:10:13;;;;;;;49.38;18.50;;;7.40;99.90;;;;;;5086621;28;20410;-74
2023/12/09 06:12:39;;;;;;;50.40;18.52;;;7.40;99.90;;;;;;5097984;28;20467;-74
2023/12/09 06:15:06;;;;;;;46.33;19.00;;;7.40;99.90;;;;;;5104797;28;20847;-74
2023/12/09 06:17:31;;;;;;;53.25;18.63;;;7.40;99.90;;;;;;5098302;28;20409;-74
2023/12/09 06:19:57;;;;;;;55.60;18.20;;;7.40;99.90;;;;;;5102664;28;20453;-75
2023/12/09 06:22:22;;;;;;;49.47;18.13;;;7.40;99.90;;;;;;5096922;28;20398;-74
2023/12/09 06:24:48;;;;;;;50.47;17.95;;;7.40;99.90;;;;;;5101563;28;20427;-74
2023/12/09 06:27:14;;;;;;;49.23;17.17;;;7.40;99.90;;;;;;5087669;28;20434;-74
2023/12/09 06:29:39;;;;;;;49.95;17.77;;;7.40;99.90;;;;;;5094502;28;20405;-74
2023/12/09 06:32:05;;;;;;;42.27;17.70;;;7.40;99.90;;;;;;5082232;28;20486;-74
2023/12/09 06:34:31;;;;;;;52.10;18.17;;;7.40;99.90;;;;;;5104530;28;20503;-74
2023/12/09 06:36:57;;;;;;;53.83;17.67;;;7.40;99.90;;;;;;5100318;28;20987;-74
2023/12/09 06:39:22;;;;;;;48.17;17.52;;;7.40;99.90;;;;;;5104365;28;20453;-74
2023/12/09 06:41:48;;;;;;;48.63;17.23;;;7.40;99.90;;;;;;5101349;28;20451;-74
2023/12/09 06:44:14;;;;;;;53.17;16.95;;;7.40;99.90;;;;;;5095715;28;20472;-74
2023/12/09 06:46:40;;;;;;;52.35;17.63;;;7.30;99.90;;;;;;5089237;28;20405;-74
2023/12/09 06:49:06;;;;;;;53.55;17.23;;;7.30;99.90;;;;;;5103870;28;20400;-74
2023/12/09 06:51:32;;;;;;;45.50;17.55;;;7.40;99.90;;;;;;5101246;28;20455;-74
2023/12/09 06:54:00;;;;;;;50.97;16.60;;;7.40;99.90;;;;;;5103496;28;20797;-74
2023/12/09 06:56:25;;;;;;;47.97;17.35;;;7.30;99.90;;;;;;5103397;28;20459;-74
2023/12/09 06:58:51;;;;;;;48.20;17.13;;;7.30;99.90;;;;;;5103387;28;20416;-74
2023/12/09 07:01:24;;;;;;;52.93;17.10;;;7.30;99.90;;;;;;5100315;28;21019;-74
2023/12/09 07:03:50;;;;;;;42.45;15.93;;;7.40;99.90;;;;;;5094003;28;20434;-74
2023/12/09 07:06:22;;;;;;;44.78;16.75;;;7.30;99.90;;;;;;5098621;28;20475;-74
2023/12/09 07:08:48;;;;;;;37.22;15.98;;;7.30;99.90;;;;;;5103084;28;20475;-74
2023/12/09 07:11:17;;;;;;;42.38;16.45;;;7.40;99.90;;;;;;5097526;28;20906;-74
2023/12/09 07:13:43;;;;;;;44.58;16.35;;;7.40;99.90;;;;;;5091604;28;20421;-74
2023/12/09 07:16:10;;;;;;;42.78;16.02;;;7.40;99.90;;;;;;5100690;28;20408;-74
2023/12/09 07:18:37;;;;;;;44.05;15.18;;;7.30;99.90;;;;;;5102034;28;20440;-74
2023/12/09 07:21:03;;;;;;;46.10;16.58;;;7.40;99.90;;;;;;5083062;28;20520;-74
2023/12/09 07:23:28;;;;;;;38.30;16.13;;;7.30;99.90;;;;;;5100280;28;20464;-74
2023/12/09 07:25:55;;;;;;;44.43;16.33;;;7.30;99.90;;;;;;5104925;28;20941;-74
2023/12/09 07:28:21;;;;;;;44.75;16.70;;;7.30;99.90;;;;;;5105382;28;20396;-74
2023/12/09 07:30:46;;;;;;;45.30;16.77;;;7.30;99.90;;;;;;5092163;28;20406;-74
2023/12/09 07:33:12;;;;;;;44.43;16.23;;;7.30;99.90;;;;;;5107768;28;21021;-74
2023/12/09 07:35:39;;;;;;;40.08;15.02;;;7.30;99.90;;;;;;5104082;28;20404;-74
2023/12/09 07:38:05;;;;;;;38.30;15.27;;;7.30;99.90;;;;;;5107355;28;20771;-74
2023/12/09 07:40:30;;;;;;;41.28;15.30;;;7.30;99.90;;;;;;5102107;28;20410;-74
2023/12/09 07:42:57;;;;;;;37.13;14.77;;;7.30;99.90;;;;;;5106930;28;20430;-74
2023/12/09 07:45:22;;;;;;;36.65;14.27;;;7.20;99.90;;;;;;5104138;28;20404;-74
2023/12/09 07:47:48;;;;;;;37.10;14.63;;;7.20;99.90;;;;;;5106097;28;21178;-74
2023/12/09 07:50:13;;;;;;;36.10;13.87;;;7.20;99.90;;;;;;5103273;28;20408;-74
2023/12/09 07:52:39;;;;;;;33.97;13.30;;;7.20;99.90;;;;;;5088656;28;20411;-74
2023/12/09 07:55:06;;;;;;;39.85;13.35;;;7.20;99.90;;;;;;5098764;28;20400;-74
2023/12/09 07:57:32;;;;;;;37.53;13.27;;;7.20;99.90;;;;;;5099337;28;20520;-74
2023/12/09 07:59:58;;;;;;;34.90;13.82;;;7.20;99.90;;;;;;5100062;28;20485;-74
2023/12/09 08:02:23;;;;;;;39.73;14.70;;;7.20;99.90;;;;;;5104748;28;20428;-74
2023/12/09 08:04:49;;;;;;;39.30;14.00;;;7.20;99.90;;;;;;5100288;28;20493;-74
2023/12/09 08:07:15;;;;;;;40.15;14.48;;;7.20;99.90;;;;;;5088594;28;20819;-74
2023/12/09 08:09:41;;;;;;;41.92;15.15;;;7.20;99.90;;;;;;5093518;28;20425;-74
2023/12/09 08:12:07;;;;;;;38.10;13.47;;;7.20;99.90;;;;;;5082375;28;20403;-75
2023/12/09 08:14:33;;;;;;;36.97;13.07;;;7.20;99.90;;;;;;5083712;28;20406;-75
2023/12/09 08:16:59;;;;;;;37.53;13.88;;;7.20;99.90;;;;;;5080832;28;20479;-75
2023/12/09 08:19:24;;;;;;;35.03;13.40;;;7.10;99.90;;;;;;5088973;28;20481;-75
2023/12/09 08:21:50;;;;;;;40.73;14.37;;;7.20;99.90;;;;;;5081341;28;20396;-75
2023/12/09 08:24:16;;;;;;;36.47;13.25;;;7.20;99.90;;;;;;5070033;28;20433;-74
2023/12/09 08:26:42;;;;;;;42.30;15.90;;;7.20;99.90;;;;;;5078183;28;20408;-74
2023/12/09 08:29:14;;;;;;;40.40;13.45;;;7.20;99.90;;;;;;5090337;28;20414;-74
2023/12/09 08:31:46;;;;;;;36.45;13.60;;;7.20;99.90;;;;;;5094151;28;20404;-74
2023/12/09 08:34:12;;;;;;;41.97;13.85;;;7.20;99.90;;;;;;5099353;27;20478;-74
2023/12/09 08:36:38;;;;;;;38.70;13.70;;;7.20;99.90;;;;;;5076543;28;20411;-73
2023/12/09 08:39:04;;;;;;;38.17;13.13;;;7.20;99.90;;;;;;5084268;28;20414;-73
2023/12/09 08:41:29;;;;;;;38.55;12.30;;;7.20;99.90;;;;;;5077804;28;20559;-74
2023/12/09 08:43:56;;;;;;;39.10;12.40;;;7.20;99.90;;;;;;5091003;28;20792;-73
2023/12/09 08:46:22;;;;;;;32.33;11.45;;;7.20;99.90;;;;;;5085546;28;20387;-73
2023/12/09 08:48:48;;;;;;;36.97;11.88;;;7.30;99.90;;;;;;5091852;28;20401;-73
2023/12/09 08:51:14;;;;;;;32.20;11.23;;;7.30;99.90;;;;;;5090527;28;20405;-73
2023/12/09 08:53:39;;;;;;;31.97;10.63;;;7.30;99.90;;;;;;5092965;28;20402;-74
2023/12/09 08:56:05;;;;;;;28.50;10.75;;;7.30;99.90;;;;;;5080556;28;20422;-74
2023/12/09 08:58:31;;;;;;;30.38;10.10;;;7.30;99.90;;;;;;5085471;28;20942;-74
2023/12/09 09:00:57;;;;;;;33.03;9.98;;;7.30;99.90;;;;;;5093447;28;20403;-73
2023/12/09 09:03:23;;;;;;;31.37;10.00;;;7.30;99.90;;;;;;5098236;28;20430;-74
2023/12/09 09:05:48;;;;;;;30.80;9.90;;;7.30;99.90;;;;;;5098979;28;20871;-71
2023/12/09 09:08:14;;;;;;;29.85;10.00;;;7.20;99.90;;;;;;5093989;28;20502;-71
2023/12/09 09:10:40;;;;;;;27.17;9.65;;;7.20;99.90;;;;;;5091992;28;20408;-72
2023/12/09 09:13:05;;;;;;;36.13;10.30;;;7.20;99.90;;;;;;5086819;28;20406;-72
2023/12/09 09:15:32;;;;;;;27.87;9.00;;;7.20;99.90;;;;;;5087497;28;20410;-72
2023/12/09 09:17:57;;;;;;;29.77;8.55;;;7.30;99.90;;;;;;5089033;28;20754;-72
2023/12/09 09:20:24;;;;;;;22.37;7.67;;;7.30;99.90;;;;;;5087948;28;20421;-72
2023/12/09 09:22:50;;;;;;;21.15;6.85;;;7.20;99.90;;;;;;5086851;28;20437;-73
2023/12/09 09:25:16;;;;;;;27.30;7.40;;;7.30;99.90;;;;;;5089307;28;20401;-72
2023/12/09 09:27:41;;;;;;;28.63;7.40;;;7.30;99.90;;;;;;5087711;28;20398;-72
2023/12/09 09:30:07;;;;;;;25.10;6.90;;;7.30;99.90;;;;;;5087308;28;20406;-73
2023/12/09 09:32:33;;;;;;;25.33;6.60;;;7.30;99.90;;;;;;5090537;28;20423;-73
2023/12/09 09:34:59;;;;;;;22.45;6.03;;;7.30;99.90;;;;;;5108833;28;20420;-73
2023/12/09 09:37:25;;;;;;;21.77;5.47;;;7.40;99.90;;;;;;5092199;28;20412;-73
2023/12/09 09:39:50;;;;;;;19.23;5.60;;;7.40;99.90;;;;;;5103805;28;20419;-73
2023/12/09 09:42:29;;;;;;;24.10;6.10;;;7.30;99.90;;;;;;5096218;28;20410;-73
2023/12/09 09:45:17;;;;;;;27.70;8.20;;;7.40;99.90;;;;;;5087133;28;20501;-73
2023/12/09 09:47:46;;;;;;;28.50;12.52;;;7.40;99.90;;;;;;5091808;28;20949;-73
2023/12/09 09:50:15;;;;;;;28.95;14.10;;;7.40;99.90;;;;;;5092299;28;20421;-73
2023/12/09 09:52:41;;;;;;;28.27;13.77;;;7.40;99.90;;;;;;5089192;28;20400;-72
2023/12/09 09:55:08;;;;;;;28.30;13.48;;;7.40;99.90;;;;;;5104612;28;20415;-73
2023/12/09 09:57:34;;;;;;;25.83;10.23;;;7.40;99.90;;;;;;5096588;28;20414;-72
2023/12/09 10:00:01;;;;;;;19.95;6.68;;;7.50;99.90;;;;;;5085808;28;20425;-73
2023/12/09 10:02:27;;;;;;;24.63;6.27;;;7.50;99.90;;;;;;5086166;28;20418;-73
2023/12/09 10:04:53;;;;;;;17.58;4.97;;;7.50;99.90;;;;;;5091056;28;20537;-73
2023/12/09 10:07:20;;;;;;;17.23;5.10;;;7.50;99.90;;;;;;5093454;28;20413;-73
2023/12/09 10:09:46;;;;;;;18.75;4.35;;;7.50;99.90;;;;;;5084900;28;20413;-73
2023/12/09 10:12:12;;;;;;;15.73;4.30;;;7.50;99.90;;;;;;5098296;28;20403;-73
2023/12/09 10:14:37;;;;;;;20.90;4.57;;;7.50;99.90;;;;;;5099303;28;20420;-73
2023/12/09 10:17:03;;;;;;;21.47;4.60;;;7.50;99.90;;;;;;5098138;28;20450;-73
2023/12/09 10:19:29;;;;;;;19.02;4.68;;;7.50;99.90;;;;;;5088910;28;20428;-73
2023/12/09 10:21:54;;;;;;;19.83;4.63;;;7.50;99.90;;;;;;5096168;28;20553;-73
2023/12/09 10:24:20;;;;;;;16.40;4.63;;;7.50;99.90;;;;;;5104479;28;20426;-73
2023/12/09 10:26:46;;;;;;;18.92;4.40;;;7.50;99.90;;;;;;5101875;28;20412;-72
2023/12/09 10:29:12;;;;;;;17.70;4.82;;;7.50;99.90;;;;;;5104403;28;20485;-73
2023/12/09 10:31:38;;;;;;;19.00;5.07;;;7.50;99.90;;;;;;5105496;28;20422;-73
2023/12/09 10:34:04;;;;;;;17.38;4.53;;;7.50;99.90;;;;;;5099298;28;20426;-72
2023/12/09 10:36:30;;;;;;;17.33;4.50;;;7.60;99.90;;;;;;5096204;28;20433;-73
2023/12/09 10:38:57;;;;;;;17.80;4.95;;;7.60;99.90;;;;;;5088648;28;20413;-73
2023/12/09 10:41:25;;;;;;;17.40;5.25;;;7.60;99.90;;;;;;5104801;28;20400;-73
2023/12/09 10:43:53;;;;;;;16.83;4.25;;;7.60;99.90;;;;;;5098637;28;20446;-73
2023/12/09 10:46:19;;;;;;;15.90;4.40;;;7.70;99.90;;;;;;5096838;28;20414;-73
2023/12/09 10:48:45;;;;;;;17.57;4.60;;;7.70;99.90;;;;;;5097545;28;20746;-73
2023/12/09 10:51:10;;;;;;;15.07;4.47;;;7.70;99.90;;;;;;5098506;28;20420;-73
2023/12/09 10:53:36;;;;;;;17.17;3.73;;;7.70;99.90;;;;;;5097174;28;20406;-73
2023/12/09 10:56:02;;;;;;;15.00;3.75;;;7.70;99.90;;;;;;5106689;28;20408;-73
2023/12/09 10:58:28;;;;;;;17.45;4.32;;;7.80;99.90;;;;;;5092787;28;20433;-73
2023/12/09 11:00:57;;;;;;;15.68;3.50;;;7.80;99.90;;;;;;5097512;28;20416;-73
2023/12/09 11:03:24;;;;;;;15.20;3.80;;;7.90;99.90;;;;;;5096013;28;20506;-73
2023/12/09 11:05:51;;;;;;;18.17;3.85;;;7.90;99.90;;;;;;5064276;28;20459;-73
2023/12/09 11:08:18;;;;;;;12.63;3.65;;;8.00;99.90;;;;;;5108649;28;20406;-73
2023/12/09 11:10:45;;;;;;;18.40;4.28;;;8.00;99.90;;;;;;5094489;28;20413;-73
2023/12/09 11:13:11;;;;;;;13.65;3.88;;;8.00;99.90;;;;;;5107178;28;20406;-73
2023/12/09 11:15:37;;;;;;;15.27;3.25;;;8.00;99.90;;;;;;5110973;28;20408;-73
2023/12/09 11:18:08;;;;;;;17.08;4.47;;;8.00;99.80;;;;;;5092050;28;20540;-73
2023/12/09 11:20:40;;;;;;;14.93;3.75;;;8.10;99.50;;;;;;5105682;28;20806;-73
2023/12/09 11:23:11;;;;;;;14.63;3.78;;;8.10;99.20;;;;;;5103810;28;20503;-73
2023/12/09 11:25:43;;;;;;;16.27;3.90;;;8.10;98.80;;;;;;5101386;28;20404;-73
2023/12/09 11:28:12;;;;;;;14.80;3.90;;;8.10;99.00;;;;;;5084097;28;20416;-73
2023/12/09 11:30:42;;;;;;;12.80;3.60;;;8.10;98.70;;;;;;5095790;28;20397;-73
2023/12/09 11:33:09;;;;;;;16.33;3.80;;;8.10;98.40;;;;;;5097862;28;21187;-73
2023/12/09 11:35:35;;;;;;;12.95;3.75;;;8.10;98.20;;;;;;5102051;28;20412;-73
2023/12/09 11:38:04;;;;;;;11.63;3.20;;;8.10;98.00;;;;;;5107905;28;20408;-73
2023/12/09 11:40:31;;;;;;;13.60;3.78;;;8.10;97.70;;;;;;5102010;28;20438;-73
2023/12/09 11:43:03;;;;;;;15.63;3.17;;;8.20;97.50;;;;;;5108336;28;20428;-68
2023/12/09 11:45:29;;;;;;;16.77;3.38;;;8.10;97.20;;;;;;5093619;28;20429;-71
2023/12/09 11:47:55;;;;;;;14.70;3.80;;;8.10;97.30;;;;;;5090367;28;20438;-71
2023/12/09 11:50:21;;;;;;;12.70;3.22;;;8.10;96.60;;;;;;5090440;28;20468;-72
2023/12/09 11:52:47;;;;;;;14.73;3.47;;;8.10;96.30;;;;;;5100135;28;20429;-73
2023/12/09 11:55:17;;;;;;;12.35;3.28;;;8.10;96.50;;;;;;5105848;28;20463;-73
2023/12/09 11:57:43;;;;;;;14.40;3.67;;;8.10;96.60;;;;;;5108945;28;20484;-73
2023/12/09 12:00:13;;;;;;;15.80;3.83;;;8.10;96.00;;;;;;5106765;28;20446;-73
2023/12/09 12:02:39;;;;;;;15.35;4.00;;;8.10;96.30;;;;;;5108588;28;20457;-73
2023/12/09 12:05:07;;;;;;;13.00;3.72;;;8.00;96.00;;;;;;5083327;28;20412;-73
2023/12/09 12:07:34;;;;;;;11.27;3.08;;;8.00;96.30;;;;;;5109568;28;20476;-73
2023/12/09 12:09:59;;;;;;;10.63;2.70;;;8.00;96.40;;;;;;5094850;28;20858;-73
2023/12/09 12:12:25;;;;;;;11.30;3.10;;;8.00;96.80;;;;;;5109108;28;20408;-73
2023/12/09 12:14:54;;;;;;;12.07;3.05;;;8.00;96.50;;;;;;5106722;28;20404;-73
2023/12/09 12:17:19;;;;;;;14.35;3.67;;;8.00;96.40;;;;;;5108370;28;20478;-73
2023/12/09 12:19:45;;;;;;;11.70;3.00;;;8.00;96.30;;;;;;5107634;28;20902;-73
2023/12/09 12:22:11;;;;;;;10.90;2.67;;;8.00;96.30;;;;;;5108717;28;20765;-73
2023/12/09 12:24:43;;;;;;;11.97;3.30;;;8.00;95.60;;;;;;5101049;28;20426;-77
2023/12/09 12:27:09;;;;;;;13.05;3.45;;;8.00;96.00;;;;;;5081707;28;20426;-73
2023/12/09 12:29:40;;;;;;;11.02;3.25;;;8.00;95.70;;;;;;5076212;28;20788;-73
2023/12/09 12:32:06;;;;;;;11.10;3.03;;;7.90;95.50;;;;;;5088457;28;20418;-72
2023/12/09 12:34:32;;;;;;;10.80;3.00;;;7.90;95.50;;;;;;5073541;28;20402;-73